Time;durP1;ratioP1;P1;durP2;ratioP2;P2;SDS_P1;SDS_P2;PMS_P1;PMS_P2;Temp;Humidity;BMP_temperature;BMP_pressure;BME280_temperature;BME280_humidity;BME280_pressure;Samples;Min_cycle;Max_cycle;Signal;HPM_P1;HPM_P2
2023/07/30 00:00:20;;;;;;;;;;;17.00;99.90;;;;;;5052724;28;20048;-88
2023/07/30 00:02:46;;;;;;;;;;;17.00;99.90;;;;;;5052348;28;20092;-89
2023/07/30 00:05:11;;;;;;;;;;;16.90;99.90;;;;;;5036232;28;20441;-87
2023/07/30 00:07:37;;;;;;;;;;;16.90;99.90;;;;;;5070235;28;19913;-88
2023/07/30 00:10:03;;;;;;;;;;;16.80;99.90;;;;;;5035752;28;19956;-87
2023/07/30 00:12:28;;;;;;;;;;;16.80;99.90;;;;;;5037240;28;20399;-87
2023/07/30 00:14:54;;;;;;;;;;;16.70;99.90;;;;;;5036367;28;20819;-87
2023/07/30 00:17:19;;;;;;;;;;;16.70;99.90;;;;;;5036459;28;19909;-87
2023/07/30 00:19:45;;;;;;;;;;;16.60;99.90;;;;;;5053028;28;19916;-88
2023/07/30 00:22:11;;;;;;;;;;;16.60;99.90;;;;;;5041799;28;19951;-87
2023/07/30 00:24:36;;;;;;;;;;;16.60;99.90;;;;;;5053557;28;19917;-87
2023/07/30 00:27:02;;;;;;;;;;;16.60;99.90;;;;;;5053088;28;19917;-87
2023/07/30 00:29:27;;;;;;;;;;;16.60;99.90;;;;;;5036458;28;20367;-87
2023/07/30 00:31:53;;;;;;;;;;;16.50;99.90;;;;;;5069668;28;19923;-87
2023/07/30 00:34:20;;;;;;;;;;;16.60;99.90;;;;;;5036036;28;20041;-87
2023/07/30 00:36:46;;;;;;;;;;;16.60;99.90;;;;;;5052798;28;20022;-88
2023/07/30 00:39:11;;;;;;;;;;;16.60;99.90;;;;;;5036104;28;20039;-88
2023/07/30 00:41:37;;;;;;;;;;;16.50;99.90;;;;;;5086759;28;19920;-87
2023/07/30 00:44:04;;;;;;;;;;;16.50;99.90;;;;;;5037129;28;19913;-88
2023/07/30 00:46:30;;;;;;;;;;;16.50;99.90;;;;;;5053813;28;19962;-87
2023/07/30 00:48:56;;;;;;;;;;;16.60;99.90;;;;;;5036700;28;20399;-87
2023/07/30 00:51:22;;;;;;;;;;;16.60;99.90;;;;;;5052967;28;19943;-88
2023/07/30 00:53:48;;;;;;;;;;;16.60;99.90;;;;;;5053018;28;19908;-89
2023/07/30 00:56:15;;;;;;;;;;;16.50;99.90;;;;;;5036508;28;19908;-87
2023/07/30 00:58:41;;;;;;;;;;;16.50;99.90;;;;;;5036423;28;19999;-87
2023/07/30 01:01:06;;;;;;;;;;;16.40;99.90;;;;;;5053333;28;19912;-87
2023/07/30 01:03:32;;;;;;;;;;;16.40;99.90;;;;;;5036411;28;24123;-88
2023/07/30 01:05:58;;;;;;;;;;;16.40;99.90;;;;;;5070213;28;20424;-88
2023/07/30 01:08:24;;;;;;;;;;;16.50;99.90;;;;;;5036308;28;24087;-87
2023/07/30 01:10:50;;;;;;;;;;;16.50;99.90;;;;;;5053118;28;20383;-88
2023/07/30 01:13:16;;;;;;;;;;;16.40;99.90;;;;;;5036572;28;19959;-87
2023/07/30 01:15:42;;;;;;;;;;;16.40;99.90;;;;;;5053711;28;20418;-88
2023/07/30 01:18:07;;;;;;;;;;;16.40;99.90;;;;;;5054153;28;19956;-87
2023/07/30 01:20:33;;;;;;;;;;;16.40;99.90;;;;;;5053192;28;20260;-88
2023/07/30 01:22:59;;;;;;;;;;;16.40;99.90;;;;;;5052749;28;19909;-88
2023/07/30 01:25:27;;;;;;;;;;;16.30;99.90;;;;;;5036783;28;20007;-88
2023/07/30 01:27:54;;;;;;;;;;;16.30;99.90;;;;;;5036299;28;19913;-87
2023/07/30 01:30:29;;;;;;;;;;;16.40;99.90;;;;;;5036696;28;19957;-87
2023/07/30 01:32:54;;;;;;;;;;;16.40;99.90;;;;;;5036440;28;19915;-87
2023/07/30 01:35:21;;;;;;;;;;;16.40;99.90;;;;;;5036614;28;19908;-87
2023/07/30 01:37:47;;;;;;;;;;;16.40;99.90;;;;;;5036102;28;19916;-87
2023/07/30 01:40:38;;;;;;;;;;;16.40;99.90;;;;;;5052817;28;19919;-87
2023/07/30 01:43:03;;;;;;;;;;;16.40;99.90;;;;;;5035121;28;19920;-87
2023/07/30 01:45:47;;;;;;;;;;;16.40;99.90;;;;;;5036088;28;19909;-87
2023/07/30 01:48:13;;;;;;;;;;;16.40;99.90;;;;;;5052719;28;20371;-87
2023/07/30 01:50:38;;;;;;;;;;;16.40;99.90;;;;;;5036481;28;19905;-88
2023/07/30 01:53:04;;;;;;;;;;;16.40;99.90;;;;;;5052581;28;19915;-88
2023/07/30 01:55:29;;;;;;;;;;;16.50;99.90;;;;;;5035963;28;19955;-87
2023/07/30 01:57:55;;;;;;;;;;;16.50;99.90;;;;;;5052560;28;19908;-88
2023/07/30 02:00:21;;;;;;;;;;;16.50;99.90;;;;;;5035511;28;19912;-88
2023/07/30 02:02:46;;;;;;;;;;;16.40;99.90;;;;;;5085897;28;19909;-87
2023/07/30 02:05:12;;;;;;;;;;;16.50;99.90;;;;;;5035651;28;19923;-87
2023/07/30 02:07:40;;;;;;;;;;;16.50;99.90;;;;;;5052788;28;19909;-88
2023/07/30 02:10:06;;;;;;;;;;;16.40;99.90;;;;;;5035748;28;19915;-88
2023/07/30 02:12:41;;;;;;;;;;;16.40;99.90;;;;;;5036027;28;20257;-87
2023/07/30 02:15:34;;;;;;;;;;;16.40;99.90;;;;;;5036061;28;19995;-87
2023/07/30 02:18:00;;;;;;;;;;;16.40;99.90;;;;;;5033764;28;19913;-87
2023/07/30 02:23:25;;;;;;;;;;;16.40;99.90;;;;;;5053768;28;19948;-87
2023/07/30 02:25:51;;;;;;;;;;;16.40;99.90;;;;;;5035610;28;20411;-87
2023/07/30 02:28:16;;;;;;;;;;;16.40;99.90;;;;;;5069305;28;20470;-87
2023/07/30 02:30:42;;;;;;;;;;;16.40;99.90;;;;;;5035322;28;20007;-87
2023/07/30 02:33:07;;;;;;;;;;;16.40;99.90;;;;;;5035740;28;19916;-87
2023/07/30 02:35:33;;;;;;;;;;;16.40;99.90;;;;;;5039767;28;19955;-87
2023/07/30 02:37:59;;;;;;;;;;;16.30;99.90;;;;;;5039304;28;19952;-87
2023/07/30 02:40:25;;;;;;;;;;;16.30;99.90;;;;;;5039735;28;19960;-87
2023/07/30 02:42:50;;;;;;;;;;;16.20;99.90;;;;;;5039414;28;19909;-88
2023/07/30 02:45:17;;;;;;;;;;;16.20;99.90;;;;;;5056065;28;20375;-87
2023/07/30 02:47:42;;;;;;;;;;;16.30;99.90;;;;;;5039122;28;19913;-86
2023/07/30 02:50:08;;;;;;;;;;;16.30;99.90;;;;;;5055913;28;19909;-87
2023/07/30 02:52:34;;;;;;;;;;;16.30;99.90;;;;;;5055702;28;19962;-87
2023/07/30 02:54:59;;;;;;;;;;;16.30;99.90;;;;;;5056073;28;19908;-87
2023/07/30 02:57:53;;;;;;;;;;;16.30;99.90;;;;;;5055953;28;19909;-87
2023/07/30 03:00:19;;;;;;;;;;;16.30;99.90;;;;;;5038928;28;19909;-87
2023/07/30 03:02:44;;;;;;;;;;;16.30;99.90;;;;;;5089585;28;19915;-87
2023/07/30 03:05:10;;;;;;;;;;;16.30;99.90;;;;;;5039024;28;20327;-87
2023/07/30 03:07:36;;;;;;;;;;;16.30;99.90;;;;;;5056139;28;19959;-87
2023/07/30 03:10:02;;;;;;;;;;;16.30;99.90;;;;;;5038836;28;20004;-88
2023/07/30 03:12:28;;;;;;;;;;;16.20;99.90;;;;;;5038732;28;19916;-87
2023/07/30 03:14:53;;;;;;;;;;;16.20;99.90;;;;;;5055308;28;20271;-87
2023/07/30 03:17:19;;;;;;;;;;;16.10;99.90;;;;;;5055575;28;19905;-87
2023/07/30 03:19:46;;;;;;;;;;;16.10;99.90;;;;;;5055272;28;19909;-87
2023/07/30 03:22:11;;;;;;;;;;;16.00;99.90;;;;;;5072099;28;19938;-87
2023/07/30 03:24:37;;;;;;;;;;;15.90;99.90;;;;;;5055519;28;19916;-87
2023/07/30 03:27:03;;;;;;;;;;;15.80;99.90;;;;;;5055106;28;19912;-87
2023/07/30 03:29:28;;;;;;;;;;;15.80;99.90;;;;;;5038609;28;19908;-87
2023/07/30 03:31:54;;;;;;;;;;;15.80;99.90;;;;;;5055578;28;19908;-87
2023/07/30 03:34:19;;;;;;;;;;;15.80;99.90;;;;;;5038459;28;19909;-87
2023/07/30 03:36:45;;;;;;;;;;;15.80;99.90;;;;;;5055144;28;20410;-87
2023/07/30 03:39:10;;;;;;;;;;;15.80;99.90;;;;;;5054872;28;19913;-87
2023/07/30 03:41:36;;;;;;;;;;;15.80;99.90;;;;;;5038241;28;19916;-87
2023/07/30 03:44:01;;;;;;;;;;;15.80;99.90;;;;;;5038084;28;19912;-87
2023/07/30 03:46:27;;;;;;;;;;;15.80;99.90;;;;;;5036910;28;19963;-87
2023/07/30 03:48:53;;;;;;;;;;;15.80;99.90;;;;;;5054655;28;19913;-87
2023/07/30 03:51:18;;;;;;;;;;;15.90;99.90;;;;;;5054795;28;20355;-87
2023/07/30 03:53:44;;;;;;;;;;;15.90;99.90;;;;;;5031787;28;19909;-87
2023/07/30 03:56:10;;;;;;;;;;;15.90;99.90;;;;;;5053859;28;19916;-88
2023/07/30 03:58:35;;;;;;;;;;;15.90;99.90;;;;;;5072065;28;19909;-88
2023/07/30 04:01:01;;;;;;;;;;;16.00;99.90;;;;;;5054532;28;19912;-88
2023/07/30 04:03:28;;;;;;;;;;;16.00;99.90;;;;;;5054364;28;19908;-88
2023/07/30 04:05:53;;;;;;;;;;;16.00;99.90;;;;;;5054683;28;20270;-88
2023/07/30 04:08:19;;;;;;;;;;;16.00;99.90;;;;;;5037964;28;19916;-88
2023/07/30 04:10:44;;;;;;;;;;;16.00;99.90;;;;;;5054420;28;19962;-87
2023/07/30 04:13:22;;;;;;;;;;;15.90;99.90;;;;;;5037418;28;19996;-87
2023/07/30 04:15:48;;;;;;;;;;;15.90;99.90;;;;;;5037639;28;19952;-88
2023/07/30 04:18:14;;;;;;;;;;;16.00;99.90;;;;;;5036957;28;19957;-88
2023/07/30 04:20:39;;;;;;;;;;;16.00;99.90;;;;;;5054586;28;19913;-88
2023/07/30 04:23:05;;;;;;;;;;;16.00;99.90;;;;;;5054321;28;20322;-88
2023/07/30 04:25:31;;;;;;;;;;;15.90;99.90;;;;;;5038047;28;20050;-88
2023/07/30 04:27:56;;;;;;;;;;;15.90;99.90;;;;;;5037448;28;19919;-88
2023/07/30 04:30:22;;;;;;;;;;;15.90;99.90;;;;;;5054000;28;19908;-89
2023/07/30 04:32:48;;;;;;;;;;;15.90;99.90;;;;;;5037491;28;19915;-88
2023/07/30 04:35:14;;;;;;;;;;;15.80;99.90;;;;;;5054794;28;19936;-88
2023/07/30 04:37:39;;;;;;;;;;;15.80;99.90;;;;;;5037632;28;20021;-88
2023/07/30 04:43:14;;;;;;;;;;;15.80;99.90;;;;;;5051637;28;19920;-88
2023/07/30 04:45:40;;;;;;;;;;;15.80;99.90;;;;;;5036893;28;19955;-88
2023/07/30 04:48:06;;;;;;;;;;;15.80;99.90;;;;;;5053589;28;19948;-88
2023/07/30 04:50:32;;;;;;;;;;;15.80;99.90;;;;;;5036626;28;19919;-87
2023/07/30 04:52:58;;;;;;;;;;;15.80;99.90;;;;;;5053779;28;20364;-88
2023/07/30 04:55:24;;;;;;;;;;;15.80;99.90;;;;;;5036857;28;19916;-88
2023/07/30 04:57:50;;;;;;;;;;;15.80;99.90;;;;;;5037119;28;20279;-89
2023/07/30 05:00:16;;;;;;;;;;;15.80;99.90;;;;;;5036664;28;19908;-88
2023/07/30 05:02:42;;;;;;;;;;;15.80;99.90;;;;;;5037440;28;20271;-88
2023/07/30 05:05:08;;;;;;;;;;;15.80;99.90;;;;;;5037265;28;19909;-88
2023/07/30 05:07:34;;;;;;;;;;;15.80;99.90;;;;;;5053662;28;19908;-88
2023/07/30 05:09:59;;;;;;;;;;;15.80;99.90;;;;;;5037071;28;19908;-88
2023/07/30 05:12:25;;;;;;;;;;;15.80;99.90;;;;;;5053956;28;19916;-88
2023/07/30 05:14:50;;;;;;;;;;;15.80;99.90;;;;;;5053415;28;19967;-87
2023/07/30 05:17:16;;;;;;;;;;;15.80;99.90;;;;;;5053722;28;19919;-88
2023/07/30 05:19:42;;;;;;;;;;;15.80;99.90;;;;;;5036693;28;19909;-88
2023/07/30 05:22:32;;;;;;;;;;;15.80;99.90;;;;;;5053179;28;20326;-87
2023/07/30 05:24:58;;;;;;;;;;;15.80;99.90;;;;;;5036566;28;19909;-87
2023/07/30 05:27:23;;;;;;;;;;;15.70;99.90;;;;;;5052780;28;19959;-87
2023/07/30 05:29:49;;;;;;;;;;;15.70;99.90;;;;;;5052966;28;20059;-88
2023/07/30 05:32:15;;;;;;;;;;;15.70;99.90;;;;;;5053264;28;19912;-89
2023/07/30 05:34:40;;;;;;;;;;;15.70;99.90;;;;;;5036186;28;19909;-88
2023/07/30 05:37:06;;;;;;;;;;;15.50;99.90;;;;;;5052827;28;19909;-88
2023/07/30 05:39:32;;;;;;;;;;;15.50;99.90;;;;;;5036511;28;19920;-87
2023/07/30 05:41:57;;;;;;;;;;;15.50;99.90;;;;;;5036633;28;20012;-88
2023/07/30 05:44:23;;;;;;;;;;;15.60;99.90;;;;;;5036532;28;19916;-87
2023/07/30 05:46:48;;;;;;;;;;;15.60;99.90;;;;;;5036385;28;19979;-88
2023/07/30 05:49:14;;;;;;;;;;;15.60;99.90;;;;;;5036190;28;19909;-88
2023/07/30 05:51:40;;;;;;;;;;;15.60;99.90;;;;;;5049046;28;20275;-88
2023/07/30 05:54:05;;;;;;;;;;;15.60;99.90;;;;;;5022637;28;20481;-88
2023/07/30 05:56:31;;;;;;;;;;;15.50;99.90;;;;;;5047685;28;19909;-88
2023/07/30 05:58:57;;;;;;;;;;;15.60;99.90;;;;;;5052881;28;19908;-88
2023/07/30 06:01:22;;;;;;;;;;;15.70;99.90;;;;;;5034382;28;19913;-89
2023/07/30 06:03:48;;;;;;;;;;;15.90;99.90;;;;;;5031588;28;19909;-89
2023/07/30 06:06:14;;;;;;;;;;;16.00;99.90;;;;;;5042196;28;19932;-89
2023/07/30 06:08:40;;;;;;;;;;;16.00;99.90;;;;;;5051824;28;20336;-89
2023/07/30 06:11:05;;;;;;;;;;;15.90;99.90;;;;;;5046893;28;20371;-89
2023/07/30 06:13:31;;;;;;;;;;;16.00;99.90;;;;;;5051274;28;19909;-88
2023/07/30 06:15:57;;;;;;;;;;;16.00;99.90;;;;;;5029769;28;19996;-89
2023/07/30 06:18:22;;;;;;;;;;;15.90;99.90;;;;;;5076969;28;19913;-89
2023/07/30 06:20:49;;;;;;;;;;;15.80;99.90;;;;;;5035181;28;19954;-89
2023/07/30 06:23:14;;;;;;;;;;;15.80;99.90;;;;;;5050622;28;19909;-89
2023/07/30 06:25:40;;;;;;;;;;;15.80;99.90;;;;;;5051935;28;19905;-88
2023/07/30 06:28:05;;;;;;;;;;;15.90;99.90;;;;;;5050194;28;19979;-89
2023/07/30 06:30:36;;;;;;;;;;;16.00;99.90;;;;;;5044596;28;19905;-89
2023/07/30 06:33:02;;;;;;;;;;;16.10;99.90;;;;;;5034942;28;19908;-88
2023/07/30 06:35:27;;;;;;;;;;;16.20;99.90;;;;;;5050022;28;20358;-89
2023/07/30 06:37:53;;;;;;;;;;;16.10;99.90;;;;;;5035882;28;19912;-89
2023/07/30 06:40:19;;;;;;;;;;;16.00;99.90;;;;;;5056129;28;19936;-89
2023/07/30 06:42:44;;;;;;;;;;;16.00;99.90;;;;;;5035702;28;19912;-89
2023/07/30 06:45:10;;;;;;;;;;;16.00;99.90;;;;;;5042251;28;19948;-88
2023/07/30 06:47:36;;;;;;;;;;;16.10;99.90;;;;;;5050271;28;20283;-88
2023/07/30 06:50:02;;;;;;;;;;;16.20;99.90;;;;;;5048517;28;19943;-89
2023/07/30 06:52:28;;;;;;;;;;;16.50;99.90;;;;;;5049438;28;19912;-89
2023/07/30 06:54:53;;;;;;;;;;;16.80;99.90;;;;;;5051333;28;19915;-87
2023/07/30 06:57:19;;;;;;;;;;;16.90;99.90;;;;;;5034932;28;19916;-87
2023/07/30 06:59:45;;;;;;;;;;;17.30;99.90;;;;;;5067964;28;19931;-89
2023/07/30 07:02:10;;;;;;;;;;;17.30;99.90;;;;;;5035120;28;20011;-88
2023/07/30 07:04:36;;;;;;;;;;;17.30;99.90;;;;;;5048892;28;19909;-89
2023/07/30 07:07:03;;;;;;;;;;;17.40;99.90;;;;;;5047996;28;19995;-89
2023/07/30 07:09:29;;;;;;;;;;;17.50;99.90;;;;;;5034946;28;20301;-89
2023/07/30 07:11:55;;;;;;;;;;;17.90;99.90;;;;;;5034527;28;19909;-88
2023/07/30 07:14:20;;;;;;;;;;;17.80;99.90;;;;;;5051807;28;19916;-88
2023/07/30 07:16:46;;;;;;;;;;;18.10;99.90;;;;;;5080589;28;20356;-86
2023/07/30 07:19:11;;;;;;;;;;;18.60;99.90;;;;;;5033785;28;19908;-85
2023/07/30 07:21:37;;;;;;;;;;;18.90;99.90;;;;;;5047338;28;20279;-86
2023/07/30 07:24:03;;;;;;;;;;;19.20;99.90;;;;;;5037854;28;19913;-85
2023/07/30 07:26:28;;;;;;;;;;;19.20;99.90;;;;;;5064971;28;19915;-86
2023/07/30 07:28:55;;;;;;;;;;;19.10;99.90;;;;;;5054459;28;19905;-86
2023/07/30 07:31:21;;;;;;;;;;;19.20;99.90;;;;;;5037919;28;19908;-88
2023/07/30 07:33:46;;;;;;;;;;;19.10;99.90;;;;;;5054232;28;19916;-86
2023/07/30 07:36:14;;;;;;;;;;;18.80;99.90;;;;;;5053719;28;20356;-86
2023/07/30 07:38:39;;;;;;;;;;;18.50;99.90;;;;;;5053377;28;19912;-87
2023/07/30 07:41:05;;;;;;;;;;;18.20;99.90;;;;;;5038319;28;19920;-86
2023/07/30 07:43:31;;;;;;;;;;;18.00;99.90;;;;;;5068192;28;19909;-86
2023/07/30 07:45:56;;;;;;;;;;;17.80;99.90;;;;;;5037993;28;20364;-87
2023/07/30 07:48:22;;;;;;;;;;;17.70;99.90;;;;;;5048961;28;20253;-87
2023/07/30 07:50:48;;;;;;;;;;;17.50;99.90;;;;;;5037768;28;20293;-88
2023/07/30 07:53:13;;;;;;;;;;;17.10;99.90;;;;;;5067323;28;19987;-88
2023/07/30 07:55:39;;;;;;;;;;;16.90;99.90;;;;;;5035264;28;20410;-87
2023/07/30 07:58:05;;;;;;;;;;;16.80;99.90;;;;;;5037373;28;19908;-87
2023/07/30 08:00:30;;;;;;;;;;;16.80;99.90;;;;;;5050736;28;19909;-87
2023/07/30 08:02:57;;;;;;;;;;;16.60;99.90;;;;;;5036862;28;20279;-87
2023/07/30 08:05:24;;;;;;;;;;;16.60;99.90;;;;;;5038356;28;19909;-87
2023/07/30 08:07:50;;;;;;;;;;;16.40;99.90;;;;;;5055809;28;19916;-87
2023/07/30 08:10:16;;;;;;;;;;;16.40;99.90;;;;;;5057327;28;20026;-88
2023/07/30 08:12:48;;;;;;;;;;;16.30;99.90;;;;;;5038932;28;19920;-87
2023/07/30 08:15:14;;;;;;;;;;;16.40;99.90;;;;;;5055546;28;19962;-87
2023/07/30 08:17:39;;;;;;;;;;;16.50;99.90;;;;;;5040169;28;20349;-88
2023/07/30 08:20:05;;;;;;;;;;;16.50;99.90;;;;;;5038776;28;19932;-88
2023/07/30 08:22:31;;;;;;;;;;;16.50;99.90;;;;;;5038822;28;19913;-88
2023/07/30 08:24:56;;;;;;;;;;;16.40;99.90;;;;;;5039960;28;19916;-87
2023/07/30 08:27:22;;;;;;;;;;;16.20;99.90;;;;;;5037916;28;20166;-87
2023/07/30 08:29:48;;;;;;;;;;;16.20;99.90;;;;;;5055250;28;20282;-87
2023/07/30 08:32:13;;;;;;;;;;;16.30;99.90;;;;;;5037966;28;19909;-86
2023/07/30 08:34:39;;;;;;;;;;;16.50;99.90;;;;;;5056042;28;19915;-87
2023/07/30 08:37:04;;;;;;;;;;;16.90;99.90;;;;;;5037605;28;20303;-87
2023/07/30 08:39:30;;;;;;;;;;;17.60;99.90;;;;;;5054207;28;19974;-87
2023/07/30 08:41:56;;;;;;;;;;;17.70;99.90;;;;;;5067173;28;19913;-87
2023/07/30 08:44:21;;;;;;;;;;;17.60;99.90;;;;;;5054119;28;19974;-89
2023/07/30 08:46:47;;;;;;;;;;;17.50;99.90;;;;;;5037381;28;19916;-88
2023/07/30 08:49:13;;;;;;;;;;;17.60;99.90;;;;;;5037484;28;19951;-88
2023/07/30 08:55:07;;;;;;;;;;;17.60;99.90;;;;;;5055501;28;19917;-88
2023/07/30 08:57:33;;;;;;;;;;;18.00;99.90;;;;;;5087405;28;19912;-88
2023/07/30 09:00:08;;;;;;;;;;;18.20;99.90;;;;;;5053848;28;19908;-87
2023/07/30 09:02:37;;;;;;;;;;;18.10;99.90;;;;;;5037577;28;20279;-87
2023/07/30 09:05:15;;;;;;;;;;;17.90;99.90;;;;;;5037345;28;19913;-88
2023/07/30 09:07:41;;;;;;;;;;;17.90;99.90;;;;;;5038175;28;19915;-87
2023/07/30 09:10:38;;;;;;;;;;;18.10;99.90;;;;;;5043139;28;19909;-88
2023/07/30 09:13:03;;;;;;;;;;;18.50;99.90;;;;;;5057607;28;19948;-88
2023/07/30 09:15:31;;;;;;;;;;;19.60;99.90;;;;;;5037736;28;20374;-88
2023/07/30 09:17:57;;;;;;;;;;;20.30;99.90;;;;;;5070519;28;19999;-88
2023/07/30 09:20:22;;;;;;;;;;;20.80;99.90;;;;;;5052966;28;20407;-87
2023/07/30 09:22:49;;;;;;;;;;;20.70;99.90;;;;;;5052138;28;19973;-87
2023/07/30 09:25:43;;;;;;;;;;;20.90;99.90;;;;;;5056872;28;19944;-87
2023/07/30 09:28:10;;;;;;;;;;;21.70;99.90;;;;;;5036701;28;20352;-87
2023/07/30 09:30:39;;;;;;;;;;;22.80;99.90;;;;;;5053061;28;19962;-86
2023/07/30 09:33:05;;;;;;;;;;;23.20;99.90;;;;;;5036106;28;19912;-87
2023/07/30 09:35:32;;;;;;;;;;;23.10;99.90;;;;;;5036243;28;19909;-87
2023/07/30 09:38:02;;;;;;;;;;;22.40;99.90;;;;;;5052228;28;19908;-86
2023/07/30 09:40:32;;;;;;;;;;;22.10;99.90;;;;;;5035860;28;19912;-87
2023/07/30 09:42:58;;;;;;;;;;;21.70;99.90;;;;;;5041242;28;20284;-86
2023/07/30 09:45:25;;;;;;;;;;;21.00;99.90;;;;;;5036444;28;19958;-86
2023/07/30 09:47:51;;;;;;;;;;;20.50;99.90;;;;;;5050577;28;19916;-86
2023/07/30 09:50:17;;;;;;;;;;;20.30;99.90;;;;;;5035982;28;20309;-86
2023/07/30 09:52:43;;;;;;;;;;;20.20;99.90;;;;;;5035925;28;19917;-86
2023/07/30 09:55:09;;;;;;;;;;;20.30;99.90;;;;;;5035811;28;19909;-85
2023/07/30 09:57:36;;;;;;;;;;;20.30;99.90;;;;;;5035492;28;19909;-85
2023/07/30 10:00:03;;;;;;;;;;;20.20;99.90;;;;;;5052463;28;19908;-85
2023/07/30 10:02:33;;;;;;;;;;;19.90;99.90;;;;;;5052372;28;19952;-86
2023/07/30 10:04:59;;;;;;;;;;;19.90;99.90;;;;;;5052135;28;20438;-86
2023/07/30 10:07:46;;;;;;;;;;;19.70;99.90;;;;;;5052034;28;20010;-86
2023/07/30 10:10:12;;;;;;;;;;;19.60;99.90;;;;;;5056987;28;19931;-86
2023/07/30 10:12:40;;;;;;;;;;;20.00;99.90;;;;;;5052163;28;19909;-86
2023/07/30 10:15:06;;;;;;;;;;;20.50;99.90;;;;;;5036399;28;19913;-86
2023/07/30 10:17:32;;;;;;;;;;;20.50;99.90;;;;;;5051905;28;19928;-86
2023/07/30 10:20:17;;;;;;;;;;;20.60;99.90;;;;;;5051756;28;19916;-86
2023/07/30 10:22:45;;;;;;;;;;;20.50;99.90;;;;;;5035550;28;19966;-85
2023/07/30 10:25:12;;;;;;;;;;;20.70;99.90;;;;;;5034790;28;19908;-86
2023/07/30 10:27:39;;;;;;;;;;;20.30;99.90;;;;;;5034850;28;19908;-85
2023/07/30 10:30:09;;;;;;;;;;;19.70;99.90;;;;;;5067967;28;19913;-86
2023/07/30 10:32:41;;;;;;;;;;;19.30;99.90;;;;;;5034610;28;19965;-84
2023/07/30 10:35:07;;;;;;;;;;;19.20;99.90;;;;;;5068429;28;19913;-85
2023/07/30 10:37:32;;;;;;;;;;;18.90;99.90;;;;;;5035066;28;19912;-85
2023/07/30 10:39:58;;;;;;;;;;;18.80;99.90;;;;;;5051917;28;20029;-86
2023/07/30 10:42:23;;;;;;;;;;;19.50;99.90;;;;;;5034847;28;20429;-85
2023/07/30 10:44:49;;;;;;;;;;;20.40;99.90;;;;;;5051001;28;19909;-86
2023/07/30 10:47:15;;;;;;;;;;;20.90;99.90;;;;;;5034487;28;19908;-85
2023/07/30 10:49:41;;;;;;;;;;;21.60;99.90;;;;;;5068019;28;19919;-87
2023/07/30 10:52:07;;;;;;;;;;;22.20;99.90;;;;;;5034590;28;19905;-86
2023/07/30 10:54:36;;;;;;;;;;;22.70;99.90;;;;;;5052477;28;20261;-86
2023/07/30 10:57:02;;;;;;;;;;;21.90;99.90;;;;;;5055223;28;20356;-87
2023/07/30 10:59:33;;;;;;;;;;;21.80;99.90;;;;;;5055254;28;19909;-87
2023/07/30 11:01:59;;;;;;;;;;;22.50;99.90;;;;;;5038471;28;19940;-87
2023/07/30 11:04:25;;;;;;;;;;;22.80;99.90;;;;;;5038537;28;19905;-88
2023/07/30 11:06:51;;;;;;;;;;;22.80;99.90;;;;;;5038091;28;19915;-87
2023/07/30 11:09:24;;;;;;;;;;;22.40;99.90;;;;;;5038170;28;19964;-87
2023/07/30 11:11:50;;;;;;;;;;;22.00;99.90;;;;;;5054817;28;19991;-87
2023/07/30 11:14:16;;;;;;;;;;;22.60;99.90;;;;;;5037945;28;19921;-86
2023/07/30 11:16:59;;;;;;;;;;;23.00;99.90;;;;;;5038307;28;19915;-87
2023/07/30 11:19:24;;;;;;;;;;;22.00;99.90;;;;;;5071842;28;19962;-86
2023/07/30 11:21:52;;;;;;;;;;;20.80;99.90;;;;;;5054671;28;19917;-86
2023/07/30 11:24:17;;;;;;;;;;;20.00;99.90;;;;;;5055001;28;19909;-85
2023/07/30 11:26:43;;;;;;;;;;;19.60;99.90;;;;;;5037712;28;19949;-86
2023/07/30 11:29:19;;;;;;;;;;;19.40;99.90;;;;;;5054154;28;19913;-87
2023/07/30 11:31:45;;;;;;;;;;;19.80;99.90;;;;;;5067269;28;19909;-87
2023/07/30 11:34:11;;;;;;;;;;;20.20;99.90;;;;;;5054470;28;19913;-86
2023/07/30 11:36:37;;;;;;;;;;;20.60;99.90;;;;;;5054592;28;20361;-86
2023/07/30 11:39:03;;;;;;;;;;;20.70;99.90;;;;;;5037666;28;20360;-87
2023/07/30 11:41:29;;;;;;;;;;;20.70;99.90;;;;;;5054437;28;19913;-86
2023/07/30 11:43:54;;;;;;;;;;;20.90;99.90;;;;;;5037940;28;19912;-86
2023/07/30 11:46:22;;;;;;;;;;;21.00;99.90;;;;;;5037539;28;19932;-86
2023/07/30 11:48:49;;;;;;;;;;;21.10;99.90;;;;;;5037262;28;19909;-86
2023/07/30 11:51:32;;;;;;;;;;;21.30;99.90;;;;;;5066228;28;19951;-85
2023/07/30 11:53:59;;;;;;;;;;;21.00;99.90;;;;;;5053942;28;19908;-86
2023/07/30 11:56:24;;;;;;;;;;;20.60;99.90;;;;;;5037176;28;19915;-86
2023/07/30 11:58:53;;;;;;;;;;;20.10;99.90;;;;;;5055273;28;20279;-85
2023/07/30 12:01:19;;;;;;;;;;;19.80;99.90;;;;;;5037447;28;19932;-85
2023/07/30 12:03:45;;;;;;;;;;;19.90;99.90;;;;;;5037302;28;19931;-85
2023/07/30 12:06:11;;;;;;;;;;;20.50;99.90;;;;;;5052774;28;19917;-86
2023/07/30 12:08:37;;;;;;;;;;;20.80;99.90;;;;;;5037222;28;19963;-86
2023/07/30 12:11:03;;;;;;;;;;;21.40;99.90;;;;;;5053624;28;19972;-86
2023/07/30 12:13:29;;;;;;;;;;;21.90;99.90;;;;;;5036902;28;19909;-85
2023/07/30 12:15:55;;;;;;;;;;;21.80;99.90;;;;;;5053473;28;20066;-85
2023/07/30 12:18:21;;;;;;;;;;;21.80;99.90;;;;;;5036804;28;19909;-85
2023/07/30 12:20:47;;;;;;;;;;;22.10;99.90;;;;;;5053232;28;19984;-86
2023/07/30 12:23:12;;;;;;;;;;;22.20;99.90;;;;;;5053409;28;19958;-84
2023/07/30 12:25:47;;;;;;;;;;;21.80;99.90;;;;;;5036813;28;20431;-85
2023/07/30 12:28:13;;;;;;;;;;;21.20;99.90;;;;;;5052911;28;19912;-86
2023/07/30 12:30:39;;;;;;;;;;;21.00;99.90;;;;;;5053304;28;20348;-85
2023/07/30 12:33:05;;;;;;;;;;;20.90;99.90;;;;;;5036449;28;19908;-85
2023/07/30 12:35:31;;;;;;;;;;;20.80;99.90;;;;;;5036612;28;20408;-86
2023/07/30 12:37:57;;;;;;;;;;;20.70;99.90;;;;;;5036117;28;19967;-84
2023/07/30 12:40:22;;;;;;;;;;;20.70;99.90;;;;;;5036472;28;19951;-85
2023/07/30 12:42:48;;;;;;;;;;;20.90;99.90;;;;;;5053158;28;20427;-84
2023/07/30 12:45:22;;;;;;;;;;;21.10;99.90;;;;;;5052607;28;19916;-85
2023/07/30 12:47:47;;;;;;;;;;;21.10;99.90;;;;;;5052580;28;19915;-84
2023/07/30 12:50:13;;;;;;;;;;;20.70;99.90;;;;;;5053133;28;20573;-84
2023/07/30 12:52:39;;;;;;;;;;;20.50;99.90;;;;;;5085946;28;19916;-85
2023/07/30 12:55:04;;;;;;;;;;;20.50;99.90;;;;;;5052697;28;20499;-85
2023/07/30 12:57:30;;;;;;;;;;;20.50;99.90;;;;;;5036096;28;19909;-85
2023/07/30 12:59:56;;;;;;;;;;;20.70;99.90;;;;;;5052731;28;19908;-83
2023/07/30 13:02:21;;;;;;;;;;;20.80;99.90;;;;;;5036074;28;20759;-85
2023/07/30 13:04:47;;;;;;;;;;;20.60;99.90;;;;;;5053006;28;19915;-85
2023/07/30 13:07:12;;;;;;;;;;;20.40;99.90;;;;;;5035594;28;19958;-84
2023/07/30 13:09:38;;;;;;;;;;;20.40;99.90;;;;;;5035988;28;19916;-85
2023/07/30 13:12:04;;;;;;;;;;;20.30;99.90;;;;;;5036023;28;19909;-85
2023/07/30 13:14:29;;;;;;;;;;;20.30;99.90;;;;;;5052723;28;19909;-86
2023/07/30 13:16:55;;;;;;;;;;;20.40;99.90;;;;;;5034959;28;20364;-85
2023/07/30 13:19:20;;;;;;;;;;;20.80;99.90;;;;;;5052100;28;20238;-86
2023/07/30 13:21:46;;;;;;;;;;;21.10;99.90;;;;;;5048483;28;19919;-85
2023/07/30 13:24:11;;;;;;;;;;;21.20;99.90;;;;;;5035687;28;19908;-86
2023/07/30 13:26:38;;;;;;;;;;;21.30;99.90;;;;;;5035660;28;20342;-86
2023/07/30 13:29:04;;;;;;;;;;;21.70;99.90;;;;;;5052252;28;20347;-85
2023/07/30 13:31:30;;;;;;;;;;;21.40;99.90;;;;;;5035258;28;19909;-86
2023/07/30 13:33:55;;;;;;;;;;;20.80;99.90;;;;;;5046217;28;19962;-85
2023/07/30 13:36:21;;;;;;;;;;;20.90;99.90;;;;;;5040998;28;19916;-85
2023/07/30 13:38:47;;;;;;;;;;;21.20;99.90;;;;;;5032773;28;19926;-86
2023/07/30 13:41:13;;;;;;;;;;;20.90;99.90;;;;;;5044417;28;20148;-84
2023/07/30 13:43:38;;;;;;;;;;;21.20;99.90;;;;;;5034873;28;20494;-85
2023/07/30 13:46:04;;;;;;;;;;;20.90;99.90;;;;;;5043751;28;19909;-85
2023/07/30 13:48:29;;;;;;;;;;;20.50;99.90;;;;;;5034091;28;19909;-86
2023/07/30 13:50:55;;;;;;;;;;;20.30;99.90;;;;;;5050201;28;19915;-85
2023/07/30 13:53:21;;;;;;;;;;;20.10;99.90;;;;;;5051671;28;19921;-85
2023/07/30 13:55:46;;;;;;;;;;;19.80;99.90;;;;;;5034917;28;20343;-86
2023/07/30 13:58:12;;;;;;;;;;;19.50;99.90;;;;;;5043356;28;19916;-85
2023/07/30 14:00:39;;;;;;;;;;;19.50;99.90;;;;;;5033215;28;19908;-84
2023/07/30 14:03:04;;;;;;;;;;;19.40;99.90;;;;;;5040356;28;20390;-85
2023/07/30 14:05:33;;;;;;;;;;;19.10;99.90;;;;;;5034830;28;19905;-84
2023/07/30 14:07:58;;;;;;;;;;;19.10;99.90;;;;;;5063824;28;19963;-84
2023/07/30 14:10:24;;;;;;;;;;;19.20;99.90;;;;;;5034981;28;19915;-86
2023/07/30 14:12:50;;;;;;;;;;;19.80;99.90;;;;;;5050470;28;20422;-85
2023/07/30 14:15:15;;;;;;;;;;;20.30;99.90;;;;;;5048665;28;20011;-85
2023/07/30 14:17:41;;;;;;;;;;;20.50;99.90;;;;;;5033631;28;19913;-85
2023/07/30 14:20:07;;;;;;;;;;;20.30;99.90;;;;;;5051656;28;19915;-86
2023/07/30 14:22:33;;;;;;;;;;;20.30;99.90;;;;;;5066396;28;19963;-85